Time;durP1;ratioP1;P1;durP2;ratioP2;P2;SDS_P1;SDS_P2;PMS_P1;PMS_P2;Temp;Humidity;BMP_temperature;BMP_pressure;BME280_temperature;BME280_humidity;BME280_pressure;Samples;Min_cycle;Max_cycle;Signal;HPM_P1;HPM_P2
2022/06/01 00:00:41;;;;;;;17.33;11.80;;;9.70;99.90;;;;;;4134755;28;20220;-90
2022/06/01 00:02:44;;;;;;;17.73;11.70;;;9.60;99.90;;;;;;4148920;28;20217;-90
2022/06/01 00:04:46;;;;;;;19.50;11.63;;;9.60;99.90;;;;;;4141858;28;20302;-89
2022/06/01 00:06:48;;;;;;;15.37;10.30;;;9.60;99.90;;;;;;4149187;28;20207;-90
2022/06/01 00:08:50;;;;;;;17.87;11.40;;;9.60;99.90;;;;;;4148729;28;20323;-90
2022/06/01 00:10:53;;;;;;;16.93;10.67;;;9.40;99.90;;;;;;4149685;28;20212;-90
2022/06/01 00:12:57;;;;;;;15.47;10.40;;;9.40;99.90;;;;;;4133794;28;20212;-90
2022/06/01 00:14:59;;;;;;;16.27;11.50;;;9.30;99.90;;;;;;4139832;28;20212;-90
2022/06/01 00:19:07;;;;;;;18.40;11.33;;;9.50;99.90;;;;;;4223713;28;20228;-84
2022/06/01 00:21:10;;;;;;;17.07;11.30;;;9.40;99.90;;;;;;4224465;28;20208;-84
2022/06/01 00:23:11;;;;;;;19.43;11.60;;;9.40;99.90;;;;;;4223788;28;20207;-84
2022/06/01 00:25:15;;;;;;;17.67;11.97;;;9.40;99.90;;;;;;4205596;28;20578;-84
2022/06/01 00:27:18;;;;;;;16.37;11.43;;;9.40;99.90;;;;;;4207494;28;20223;-84
2022/06/01 00:29:21;;;;;;;18.43;11.90;;;9.40;99.90;;;;;;4224477;28;20216;-81
2022/06/01 00:31:23;;;;;;;18.40;11.90;;;9.40;99.90;;;;;;4210158;28;20594;-81
2022/06/01 00:33:25;;;;;;;18.37;11.47;;;9.40;99.90;;;;;;4226927;28;20219;-80
2022/06/01 00:35:27;;;;;;;16.30;10.87;;;9.30;99.90;;;;;;4217956;28;20477;-82
2022/06/01 00:37:29;;;;;;;16.27;10.93;;;9.40;99.90;;;;;;4215010;28;20221;-82
2022/06/01 00:39:31;;;;;;;17.20;11.40;;;9.30;99.90;;;;;;4228503;28;20466;-82
2022/06/01 00:41:33;;;;;;;21.77;12.20;;;9.30;99.90;;;;;;4227308;28;20212;-81
2022/06/01 00:43:42;;;;;;;17.50;11.33;;;9.20;99.90;;;;;;4225527;28;20531;-81
2022/06/01 00:45:45;;;;;;;20.00;11.93;;;9.40;99.90;;;;;;4223488;28;20205;-79
2022/06/01 00:47:47;;;;;;;18.77;10.87;;;9.40;99.90;;;;;;4217056;28;20313;-82
2022/06/01 00:49:55;;;;;;;18.97;11.90;;;9.50;99.90;;;;;;4218359;28;20459;-82
2022/06/01 00:52:00;;;;;;;16.97;11.40;;;9.30;99.90;;;;;;4229631;28;20212;-82
2022/06/01 00:54:03;;;;;;;19.30;11.23;;;9.30;99.90;;;;;;4230714;28;20261;-80
2022/06/01 00:56:08;;;;;;;18.63;11.23;;;9.30;99.90;;;;;;4227118;28;20244;-81
2022/06/01 00:58:15;;;;;;;19.33;13.07;;;9.30;99.90;;;;;;4221220;28;20224;-80
2022/06/01 01:00:21;;;;;;;16.80;10.40;;;9.30;99.90;;;;;;4228521;28;20213;-82
2022/06/01 01:02:24;;;;;;;18.90;12.30;;;9.30;99.90;;;;;;4231749;28;20450;-82
2022/06/01 01:04:27;;;;;;;17.13;10.87;;;9.30;99.90;;;;;;4216552;28;20690;-81
2022/06/01 01:06:32;;;;;;;19.30;12.13;;;9.20;99.90;;;;;;4223606;28;20501;-82
2022/06/01 01:08:34;;;;;;;18.40;11.70;;;9.20;99.90;;;;;;4222440;28;20221;-82
2022/06/01 01:10:35;;;;;;;18.37;11.60;;;9.20;99.90;;;;;;4216747;28;20466;-82
2022/06/01 01:12:57;;;;;;;22.03;11.83;;;9.20;99.90;;;;;;4219639;28;20220;-82
2022/06/01 01:14:58;;;;;;;18.57;11.70;;;9.20;99.90;;;;;;4222475;28;20492;-82
2022/06/01 01:17:01;;;;;;;20.00;12.10;;;9.20;99.90;;;;;;4220526;28;20221;-82
2022/06/01 01:19:08;;;;;;;18.43;11.63;;;9.20;99.90;;;;;;4224265;28;20208;-81
2022/06/01 01:21:18;;;;;;;20.50;11.53;;;9.20;99.90;;;;;;4214816;28;20457;-82
2022/06/01 01:23:31;;;;;;;18.80;11.63;;;9.20;99.90;;;;;;4224594;28;20213;-82
2022/06/01 01:25:38;;;;;;;19.07;11.97;;;9.20;99.90;;;;;;4220680;28;20266;-82
2022/06/01 01:27:40;;;;;;;18.80;11.03;;;9.20;99.90;;;;;;4218276;28;20257;-82
2022/06/01 01:29:43;;;;;;;22.00;12.30;;;9.20;99.90;;;;;;4229912;28;20297;-82
2022/06/01 01:31:45;;;;;;;17.97;11.60;;;9.20;99.90;;;;;;4221623;28;20219;-82
2022/06/01 01:33:49;;;;;;;17.67;11.27;;;9.20;99.90;;;;;;4217982;28;20214;-82
2022/06/01 01:35:55;;;;;;;20.27;12.23;;;9.20;99.90;;;;;;4222278;28;20550;-81
2022/06/01 01:38:00;;;;;;;16.93;11.40;;;9.80;99.90;;;;;;4215674;28;20239;-81
2022/06/01 01:40:02;;;;;;;20.40;12.33;;;9.10;99.90;;;;;;4221150;28;20439;-82
2022/06/01 01:42:07;;;;;;;21.47;12.50;;;9.10;99.90;;;;;;4228887;28;20211;-80
2022/06/01 01:44:12;;;;;;;19.57;12.40;;;9.10;99.90;;;;;;4232256;28;20258;-82
2022/06/01 01:46:15;;;;;;;17.37;11.40;;;9.10;99.90;;;;;;4232653;28;20216;-82
2022/06/01 01:48:17;;;;;;;16.13;10.63;;;9.10;99.90;;;;;;4205533;28;20487;-82
2022/06/01 01:50:20;;;;;;;17.80;11.93;;;9.00;99.90;;;;;;4215283;28;20231;-82
2022/06/01 01:52:23;;;;;;;18.83;12.47;;;9.00;99.90;;;;;;4199358;28;20220;-82
2022/06/01 01:54:35;;;;;;;18.20;12.17;;;9.00;99.90;;;;;;4216291;28;20288;-82
2022/06/01 01:56:53;;;;;;;16.77;11.60;;;9.00;99.90;;;;;;4207102;28;20525;-82
2022/06/01 01:59:15;;;;;;;20.43;12.47;;;9.00;99.90;;;;;;4198930;28;20228;-82
2022/06/01 02:01:22;;;;;;;17.80;12.50;;;8.90;99.90;;;;;;4185703;28;20237;-82
2022/06/01 02:03:30;;;;;;;24.63;13.00;;;8.90;99.90;;;;;;4226069;28;20216;-82
2022/06/01 02:08:05;;;;;;;18.87;11.57;;;9.60;99.90;;;;;;4203614;28;20320;-82
2022/06/01 02:12:42;;;;;;;19.10;12.07;;;8.90;99.90;;;;;;4223437;28;20250;-82
2022/06/01 02:14:51;;;;;;;16.80;11.33;;;8.90;99.90;;;;;;4216783;28;20204;-82
2022/06/01 02:16:58;;;;;;;19.10;12.10;;;8.90;99.90;;;;;;4200293;28;20529;-82
2022/06/01 02:19:02;;;;;;;18.03;11.40;;;8.90;99.90;;;;;;4203600;28;20490;-82
2022/06/01 02:21:10;;;;;;;17.83;11.40;;;8.80;99.90;;;;;;4198583;28;20779;-82
2022/06/01 02:23:14;;;;;;;19.13;11.77;;;8.80;99.90;;;;;;4209356;28;21062;-82
2022/06/01 02:25:17;;;;;;;21.87;12.43;;;8.80;99.90;;;;;;4207343;28;20492;-82
2022/06/01 02:27:20;;;;;;;18.13;11.77;;;8.80;99.90;;;;;;4217365;28;20243;-82
2022/06/01 02:29:27;;;;;;;18.60;12.03;;;8.80;99.90;;;;;;4199899;28;20463;-82
2022/06/01 02:31:32;;;;;;;19.90;11.67;;;8.80;99.90;;;;;;4225223;28;20454;-82
2022/06/01 02:33:36;;;;;;;15.87;10.97;;;8.70;99.90;;;;;;4187580;28;20448;-81
2022/06/01 02:35:41;;;;;;;17.40;11.60;;;8.70;99.90;;;;;;4186823;28;20472;-80
2022/06/01 02:37:45;;;;;;;18.30;12.63;;;8.90;99.90;;;;;;4206884;28;20582;-82
2022/06/01 02:39:53;;;;;;;21.20;12.70;;;8.80;99.90;;;;;;4207104;28;20626;-82
2022/06/01 02:44:26;;;;;;;19.33;12.47;;;8.70;99.90;;;;;;4204739;28;20208;-82
2022/06/01 02:46:28;;;;;;;16.37;11.17;;;8.70;99.90;;;;;;4228172;28;20523;-81
2022/06/01 02:48:31;;;;;;;17.83;12.03;;;8.60;99.90;;;;;;4219635;28;20502;-81
2022/06/01 02:50:34;;;;;;;20.13;13.13;;;8.60;99.90;;;;;;4223405;28;20208;-82
2022/06/01 02:52:37;;;;;;;21.43;13.80;;;8.60;99.90;;;;;;4219339;28;20215;-82
2022/06/01 02:54:38;;;;;;;19.07;12.40;;;8.70;99.90;;;;;;4209977;28;20459;-81
2022/06/01 02:56:40;;;;;;;20.83;12.40;;;8.60;99.90;;;;;;4221469;28;20243;-80
2022/06/01 02:58:42;;;;;;;22.50;13.70;;;8.60;99.90;;;;;;4222252;28;20998;-82
2022/06/01 03:00:44;;;;;;;22.43;12.90;;;8.50;99.90;;;;;;4204724;28;20212;-82
2022/06/01 03:02:46;;;;;;;19.97;13.33;;;8.60;99.90;;;;;;4206538;28;20455;-82
2022/06/01 03:04:52;;;;;;;20.80;13.10;;;8.60;99.90;;;;;;4222216;28;20447;-82
2022/06/01 03:06:53;;;;;;;23.20;12.80;;;8.50;99.90;;;;;;4227886;28;20449;-82
2022/06/01 03:08:55;;;;;;;20.43;12.77;;;8.60;99.90;;;;;;4205630;28;20484;-81
2022/06/01 03:10:57;;;;;;;19.27;12.67;;;8.50;99.90;;;;;;4201128;28;20665;-82
2022/06/01 03:12:59;;;;;;;18.90;12.87;;;8.50;99.90;;;;;;4200659;28;20455;-81
2022/06/01 03:15:01;;;;;;;22.60;13.30;;;8.50;99.90;;;;;;4207322;28;20455;-82
2022/06/01 03:17:04;;;;;;;21.13;13.77;;;8.50;99.90;;;;;;4200120;28;20479;-81
2022/06/01 03:19:06;;;;;;;21.10;13.50;;;8.50;99.90;;;;;;4202154;28;20463;-82
2022/06/01 03:21:09;;;;;;;23.07;13.57;;;8.50;99.90;;;;;;4219427;28;20569;-82
2022/06/01 03:23:12;;;;;;;18.97;12.37;;;8.50;99.90;;;;;;4203047;28;20459;-81
2022/06/01 03:25:16;;;;;;;19.37;12.47;;;8.40;99.90;;;;;;4222552;28;20439;-82
2022/06/01 03:27:18;;;;;;;23.40;13.63;;;8.40;99.90;;;;;;4204050;28;20479;-82
2022/06/01 03:29:20;;;;;;;24.60;13.67;;;8.40;99.90;;;;;;4199559;28;20558;-82
2022/06/01 03:31:22;;;;;;;22.67;13.50;;;8.40;99.90;;;;;;4205205;28;20541;-81
2022/06/01 03:33:24;;;;;;;24.93;14.30;;;8.40;99.90;;;;;;4225231;28;20472;-82
2022/06/01 03:35:30;;;;;;;23.87;13.77;;;8.30;99.90;;;;;;4209191;28;20963;-82
2022/06/01 03:37:33;;;;;;;22.70;14.10;;;8.20;99.90;;;;;;4215848;28;20492;-81
2022/06/01 03:39:35;;;;;;;26.53;14.60;;;8.30;99.90;;;;;;4198522;28;20451;-82
2022/06/01 03:41:37;;;;;;;24.27;14.20;;;8.30;99.90;;;;;;4220701;28;20474;-82
2022/06/01 03:45:58;;;;;;;29.53;15.23;;;8.30;99.90;;;;;;4203190;28;20469;-82
2022/06/01 03:48:00;;;;;;;25.77;14.67;;;8.10;99.90;;;;;;4206302;28;20489;-81
2022/06/01 03:50:03;;;;;;;24.00;14.43;;;8.40;99.90;;;;;;4225864;28;20740;-82
2022/06/01 03:52:06;;;;;;;24.30;14.23;;;8.40;99.90;;;;;;4229553;28;20817;-81
2022/06/01 03:54:09;;;;;;;25.47;14.43;;;8.40;99.90;;;;;;4202597;28;20455;-82
2022/06/01 03:56:11;;;;;;;23.87;15.07;;;8.40;99.90;;;;;;4210229;28;20482;-81
2022/06/01 03:58:17;;;;;;;28.63;16.57;;;8.40;99.90;;;;;;4205818;28;20492;-81
2022/06/01 04:00:25;;;;;;;25.23;15.10;;;8.40;99.90;;;;;;4224928;28;20226;-81
2022/06/01 04:02:26;;;;;;;32.00;17.80;;;8.40;99.90;;;;;;4208060;28;21024;-82
2022/06/01 04:04:28;;;;;;;29.43;16.57;;;8.40;99.90;;;;;;4213445;28;20673;-82
2022/06/01 04:06:30;;;;;;;30.23;16.93;;;8.50;99.90;;;;;;4205312;28;20466;-82
2022/06/01 04:08:32;;;;;;;26.27;16.40;;;8.50;99.90;;;;;;4194764;28;20494;-81
2022/06/01 04:10:37;;;;;;;24.33;15.50;;;8.50;99.90;;;;;;4200926;28;20806;-81
2022/06/01 04:12:39;;;;;;;29.20;17.47;;;8.50;99.90;;;;;;4224532;28;20443;-82
2022/06/01 04:14:41;;;;;;;31.53;15.93;;;8.60;99.90;;;;;;4220744;28;20446;-82
2022/06/01 04:16:43;;;;;;;24.43;15.33;;;8.60;99.90;;;;;;4201776;28;20923;-82
2022/06/01 04:18:45;;;;;;;24.70;14.77;;;8.60;99.90;;;;;;4218088;28;20495;-82
2022/06/01 04:20:49;;;;;;;24.97;16.20;;;8.60;99.90;;;;;;4204095;28;20546;-82
2022/06/01 04:22:54;;;;;;;26.97;16.17;;;8.60;99.90;;;;;;4199255;28;20518;-82
2022/06/01 04:24:55;;;;;;;24.97;15.00;;;8.60;99.90;;;;;;4216305;28;20455;-82
2022/06/01 04:26:59;;;;;;;28.13;15.67;;;8.60;99.90;;;;;;4218632;28;20537;-75
2022/06/01 04:29:00;;;;;;;26.60;16.67;;;8.70;99.90;;;;;;4219062;28;20463;-75
2022/06/01 04:31:02;;;;;;;24.87;15.70;;;8.70;99.90;;;;;;4224634;28;20495;-79
2022/06/01 04:33:05;;;;;;;28.20;17.20;;;8.70;99.90;;;;;;4207524;28;20216;-79
2022/06/01 04:35:08;;;;;;;26.17;17.07;;;8.80;99.90;;;;;;4228774;28;20457;-83
2022/06/01 04:37:10;;;;;;;27.03;16.53;;;8.80;99.90;;;;;;4230397;28;20216;-83
2022/06/01 04:39:12;;;;;;;29.97;16.60;;;8.90;99.90;;;;;;4205304;28;20663;-82
2022/06/01 04:41:13;;;;;;;25.70;16.23;;;8.90;99.90;;;;;;4200481;28;20465;-82
2022/06/01 04:43:19;;;;;;;27.17;16.77;;;8.90;99.90;;;;;;4218933;28;20447;-82
2022/06/01 04:45:20;;;;;;;26.33;15.57;;;8.90;99.90;;;;;;4222962;28;20831;-82
2022/06/01 04:47:22;;;;;;;26.07;15.70;;;9.00;99.90;;;;;;4204474;28;20459;-79
2022/06/01 04:49:24;;;;;;;25.53;15.37;;;8.90;99.90;;;;;;4217391;28;20459;-77
2022/06/01 04:51:26;;;;;;;31.37;15.10;;;9.00;99.90;;;;;;4218894;28;20820;-76
2022/06/01 04:53:28;;;;;;;25.93;14.83;;;9.00;99.90;;;;;;4220783;28;20201;-81
2022/06/01 04:55:30;;;;;;;26.93;15.13;;;9.00;99.90;;;;;;4199588;28;20464;-79
2022/06/01 04:57:32;;;;;;;22.73;14.60;;;9.00;99.90;;;;;;4199374;28;20328;-79
2022/06/01 04:59:35;;;;;;;21.63;14.37;;;9.10;99.90;;;;;;4193363;28;21043;-79
2022/06/01 05:01:37;;;;;;;23.27;13.20;;;9.20;99.90;;;;;;4217241;28;20943;-79
2022/06/01 05:03:39;;;;;;;23.93;14.10;;;9.20;99.90;;;;;;4219300;28;20205;-79
2022/06/01 05:05:40;;;;;;;18.40;12.73;;;9.10;99.90;;;;;;4197733;28;20896;-79
2022/06/01 05:07:42;;;;;;;20.07;12.53;;;9.10;99.90;;;;;;4216115;28;20232;-79
2022/06/01 05:09:44;;;;;;;18.73;11.80;;;9.10;99.90;;;;;;4213118;28;20622;-79
2022/06/01 05:11:46;;;;;;;16.17;11.53;;;9.10;99.90;;;;;;4213629;28;20700;-79
2022/06/01 05:13:47;;;;;;;23.57;12.47;;;9.10;99.90;;;;;;4214267;28;20200;-79
2022/06/01 05:15:53;;;;;;;18.37;12.10;;;9.20;99.90;;;;;;4198069;28;20456;-79
2022/06/01 05:17:55;;;;;;;21.03;12.00;;;9.20;99.90;;;;;;4194979;28;20279;-79
2022/06/01 05:19:56;;;;;;;23.70;12.00;;;9.20;99.90;;;;;;4196736;28;20644;-79
2022/06/01 05:21:59;;;;;;;16.67;11.37;;;9.30;99.90;;;;;;4201074;28;20206;-79
2022/06/01 05:24:01;;;;;;;17.63;11.50;;;9.40;99.90;;;;;;4213593;28;20619;-79
2022/06/01 05:26:03;;;;;;;17.33;11.57;;;9.50;99.90;;;;;;4225316;28;20621;-79
2022/06/01 05:28:05;;;;;;;16.13;10.37;;;9.50;99.90;;;;;;4202100;28;20586;-79
2022/06/01 05:30:09;;;;;;;18.23;10.93;;;9.60;99.90;;;;;;4228114;28;20204;-79
2022/06/01 05:32:12;;;;;;;16.93;10.23;;;9.60;99.90;;;;;;4218716;28;20202;-79
2022/06/01 05:34:14;;;;;;;15.10;10.03;;;9.70;99.90;;;;;;4197892;28;20216;-79
2022/06/01 05:36:18;;;;;;;15.07;9.87;;;9.80;99.90;;;;;;4201843;28;20224;-80
2022/06/01 05:38:20;;;;;;;14.27;9.60;;;9.90;99.90;;;;;;4202904;28;20237;-79
2022/06/01 05:40:22;;;;;;;13.67;9.40;;;9.90;99.90;;;;;;4214794;28;20208;-79
2022/06/01 05:42:23;;;;;;;14.43;9.87;;;10.00;99.90;;;;;;4219990;28;20678;-79
2022/06/01 05:44:25;;;;;;;16.90;9.37;;;10.00;99.90;;;;;;4201324;28;20214;-79
2022/06/01 05:46:27;;;;;;;13.83;9.30;;;10.10;99.90;;;;;;4219985;28;20212;-79
2022/06/01 05:48:30;;;;;;;12.03;8.60;;;10.10;99.90;;;;;;4216259;28;20217;-79
2022/06/01 05:50:32;;;;;;;15.97;9.27;;;10.20;99.90;;;;;;4209596;28;20231;-79
2022/06/01 05:52:34;;;;;;;15.03;8.83;;;10.20;99.90;;;;;;4215941;28;20208;-79
2022/06/01 05:54:37;;;;;;;16.13;10.30;;;10.30;99.90;;;;;;4197704;28;20214;-79
2022/06/01 05:56:39;;;;;;;16.27;9.63;;;10.40;99.90;;;;;;4202591;28;20212;-79
2022/06/01 05:58:41;;;;;;;12.80;8.80;;;10.40;99.90;;;;;;4222545;28;20821;-80
2022/06/01 06:00:44;;;;;;;14.07;8.97;;;10.50;99.90;;;;;;4219947;28;20205;-79
2022/06/01 06:02:46;;;;;;;12.87;8.63;;;10.60;99.90;;;;;;4222070;28;20202;-80
2022/06/01 06:04:49;;;;;;;15.80;8.87;;;10.60;99.90;;;;;;4205294;28;20227;-79
2022/06/01 06:06:50;;;;;;;14.57;9.10;;;10.70;99.90;;;;;;4199448;28;20206;-79
2022/06/01 06:08:55;;;;;;;12.60;8.07;;;10.70;99.90;;;;;;4213389;28;20221;-79
2022/06/01 06:10:57;;;;;;;11.30;8.27;;;10.80;99.90;;;;;;4216934;28;20209;-79
2022/06/01 06:12:59;;;;;;;11.67;7.67;;;10.90;99.90;;;;;;4215423;28;20205;-79
2022/06/01 06:15:01;;;;;;;14.83;9.20;;;10.90;99.90;;;;;;4193892;28;20695;-79
2022/06/01 06:17:02;;;;;;;16.57;10.83;;;11.00;99.90;;;;;;4227499;28;20199;-79
2022/06/01 06:19:05;;;;;;;10.80;7.03;;;11.10;99.90;;;;;;4206444;28;20237;-80
2022/06/01 06:21:09;;;;;;;10.63;6.73;;;11.10;99.90;;;;;;4224106;28;20675;-80
2022/06/01 06:23:11;;;;;;;9.20;6.07;;;11.20;99.90;;;;;;4221739;28;20207;-80
2022/06/01 06:25:13;;;;;;;10.30;6.40;;;11.20;99.90;;;;;;4218021;28;20657;-80
2022/06/01 06:27:14;;;;;;;10.83;5.93;;;11.30;99.90;;;;;;4204625;28;20250;-80
2022/06/01 06:29:18;;;;;;;8.53;5.63;;;11.30;99.90;;;;;;4205673;28;20216;-80
2022/06/01 06:31:20;;;;;;;7.77;5.90;;;11.40;99.90;;;;;;4223748;28;20261;-80
2022/06/01 06:33:22;;;;;;;7.67;5.57;;;11.50;99.90;;;;;;4207060;28;20217;-80
2022/06/01 06:35:24;;;;;;;8.53;5.67;;;11.60;99.90;;;;;;4222423;28;20259;-80
2022/06/01 06:37:27;;;;;;;7.50;5.90;;;11.70;99.90;;;;;;4204403;28;20316;-80
2022/06/01 06:39:29;;;;;;;7.70;5.60;;;11.80;99.90;;;;;;4207710;28;20702;-80
2022/06/01 06:41:31;;;;;;;10.60;5.90;;;11.80;99.90;;;;;;4194445;28;20219;-80
2022/06/01 06:43:36;;;;;;;10.30;5.43;;;11.90;99.90;;;;;;4222969;28;20295;-79
2022/06/01 06:45:37;;;;;;;7.67;5.90;;;11.90;99.90;;;;;;4228032;28;20286;-80
2022/06/01 06:47:40;;;;;;;14.07;5.70;;;12.00;99.90;;;;;;4207614;28;20232;-80
2022/06/01 06:49:42;;;;;;;9.30;5.90;;;12.10;99.90;;;;;;4209342;28;20212;-80
2022/06/01 06:51:44;;;;;;;9.40;5.60;;;12.10;99.90;;;;;;4207372;28;20221;-80
2022/06/01 06:53:47;;;;;;;9.53;5.60;;;12.10;99.90;;;;;;4223273;28;20271;-80
2022/06/01 06:55:49;;;;;;;8.07;5.77;;;12.10;99.90;;;;;;4207035;28;20213;-80
2022/06/01 06:57:52;;;;;;;6.93;5.17;;;12.30;99.90;;;;;;4227172;28;20310;-79
2022/06/01 06:59:53;;;;;;;11.00;5.80;;;12.20;99.90;;;;;;4229957;28;20733;-80
2022/06/01 07:01:55;;;;;;;8.13;5.33;;;12.20;99.90;;;;;;4228603;28;20212;-79
2022/06/01 07:04:00;;;;;;;7.73;5.07;;;12.30;99.90;;;;;;4220475;28;20290;-79
2022/06/01 07:06:13;;;;;;;6.67;5.17;;;12.40;99.90;;;;;;4200855;28;20244;-79
2022/06/01 07:08:15;;;;;;;7.53;5.10;;;12.40;99.90;;;;;;4221759;28;20228;-79
2022/06/01 07:10:19;;;;;;;7.23;5.13;;;12.50;99.90;;;;;;4229190;28;20201;-79
2022/06/01 07:12:20;;;;;;;6.47;5.00;;;12.40;99.90;;;;;;4210080;28;20219;-79
2022/06/01 07:14:22;;;;;;;5.47;4.47;;;12.30;99.90;;;;;;4217682;28;20249;-79
2022/06/01 07:16:26;;;;;;;8.47;4.90;;;12.30;99.90;;;;;;4203445;28;20307;-79
2022/06/01 07:18:28;;;;;;;6.67;4.77;;;12.30;99.90;;;;;;4212249;28;20808;-79
2022/06/01 07:20:30;;;;;;;9.07;5.10;;;12.30;99.90;;;;;;4223854;28;20216;-79
2022/06/01 07:22:32;;;;;;;8.20;5.10;;;12.20;99.90;;;;;;4203502;28;20218;-79
2022/06/01 07:24:34;;;;;;;5.97;4.50;;;12.30;99.90;;;;;;4220120;28;20265;-79
2022/06/01 07:26:40;;;;;;;9.63;4.83;;;12.40;99.90;;;;;;4221577;28;20626;-79
2022/06/01 07:28:42;;;;;;;5.73;4.47;;;12.40;99.90;;;;;;4201109;28;20244;-79
2022/06/01 07:30:44;;;;;;;9.07;5.00;;;12.40;99.90;;;;;;4209112;28;20656;-79
2022/06/01 07:32:45;;;;;;;6.70;4.57;;;12.40;99.90;;;;;;4207464;28;20211;-79
2022/06/01 07:34:48;;;;;;;7.23;4.93;;;12.40;99.90;;;;;;4220490;28;20231;-79
2022/06/01 07:36:49;;;;;;;6.53;4.10;;;12.40;99.90;;;;;;4223867;28;20204;-79
2022/06/01 07:43:39;;;;;;;6.63;4.57;;;12.40;99.90;;;;;;4218625;28;20201;-79
2022/06/01 07:45:44;;;;;;;6.77;4.30;;;12.40;99.90;;;;;;4201317;28;20212;-79
2022/06/01 07:47:46;;;;;;;7.07;4.40;;;12.40;99.90;;;;;;4204290;28;20232;-79
2022/06/01 07:49:48;;;;;;;5.00;3.87;;;12.40;99.90;;;;;;4218026;28;20204;-79
2022/06/01 07:51:49;;;;;;;10.70;5.40;;;12.40;99.90;;;;;;4222039;28;20222;-79
2022/06/01 07:53:51;;;;;;;10.13;5.50;;;12.40;99.90;;;;;;4223523;28;20217;-79
2022/06/01 07:55:53;;;;;;;8.57;4.50;;;12.50;99.90;;;;;;4208885;28;20217;-79
2022/06/01 07:57:55;;;;;;;6.57;3.97;;;12.40;99.90;;;;;;4207081;28;20248;-79
2022/06/01 07:59:58;;;;;;;5.17;3.70;;;12.40;99.90;;;;;;4220548;28;20208;-79
2022/06/01 08:02:00;;;;;;;5.47;4.07;;;12.20;99.90;;;;;;4197682;28;20216;-79
2022/06/01 08:04:04;;;;;;;6.70;3.63;;;12.40;99.90;;;;;;4197969;28;20228;-79
2022/06/01 08:06:06;;;;;;;4.93;3.77;;;12.40;99.90;;;;;;4198286;28;20800;-79
2022/06/01 08:08:08;;;;;;;5.87;3.90;;;12.30;99.90;;;;;;4220041;28;20289;-79
2022/06/01 08:10:12;;;;;;;4.77;3.70;;;12.30;99.90;;;;;;4225954;28;20239;-79
2022/06/01 08:14:34;;;;;;;7.50;3.50;;;12.30;99.90;;;;;;4226878;28;20200;-79
2022/06/01 08:16:38;;;;;;;4.63;3.57;;;12.20;99.90;;;;;;4216460;28;20302;-79
2022/06/01 08:18:40;;;;;;;4.77;3.37;;;12.10;99.90;;;;;;4202283;28;20244;-79
2022/06/01 08:20:42;;;;;;;5.47;3.13;;;12.00;99.90;;;;;;4203015;28;20223;-80
2022/06/01 08:22:44;;;;;;;6.30;4.23;;;11.90;99.90;;;;;;4207668;28;20269;-80
2022/06/01 08:24:45;;;;;;;4.70;3.87;;;11.90;99.90;;;;;;4210223;28;20652;-80
2022/06/01 08:26:47;;;;;;;6.20;4.30;;;11.90;99.90;;;;;;4199825;28;20713;-79
2022/06/01 08:28:49;;;;;;;7.70;4.00;;;11.80;99.90;;;;;;4196737;28;20288;-80
2022/06/01 08:30:52;;;;;;;9.83;4.30;;;11.90;99.90;;;;;;4214193;28;20227;-79
2022/06/01 08:32:56;;;;;;;6.03;3.67;;;11.90;99.90;;;;;;4216743;28;20215;-79
2022/06/01 08:34:58;;;;;;;6.70;4.57;;;11.90;99.90;;;;;;4208585;28;20219;-80
2022/06/01 08:36:59;;;;;;;6.63;4.17;;;12.00;99.90;;;;;;4206059;28;20296;-80
2022/06/01 08:39:01;;;;;;;5.90;3.83;;;11.90;99.90;;;;;;4224679;28;20326;-80
2022/06/01 08:41:06;;;;;;;7.00;3.70;;;11.90;99.90;;;;;;4211457;28;20233;-80
2022/06/01 08:43:12;;;;;;;6.00;3.80;;;12.00;99.90;;;;;;4230048;28;20214;-80
2022/06/01 08:45:14;;;;;;;7.33;4.10;;;11.90;99.90;;;;;;4233007;28;20215;-80
2022/06/01 08:47:23;;;;;;;4.17;3.67;;;12.00;99.90;;;;;;4229160;28;20240;-79
2022/06/01 08:49:30;;;;;;;5.23;3.60;;;12.00;99.90;;;;;;4213018;28;20241;-79
2022/06/01 08:51:33;;;;;;;4.23;3.23;;;12.00;99.90;;;;;;4218740;28;20269;-79
2022/06/01 08:53:36;;;;;;;4.50;3.17;;;12.00;99.90;;;;;;4228745;28;20210;-79
2022/06/01 08:55:46;;;;;;;5.13;3.40;;;12.00;99.90;;;;;;4221400;28;20640;-79
2022/06/01 08:57:55;;;;;;;4.50;3.33;;;12.10;99.90;;;;;;4211353;28;20678;-79
2022/06/01 09:00:06;;;;;;;4.83;3.33;;;12.20;99.90;;;;;;4219816;28;20251;-79
2022/06/01 09:02:28;;;;;;;5.13;3.33;;;12.30;99.90;;;;;;4223093;28;20553;-79
2022/06/01 09:04:42;;;;;;;4.97;3.17;;;12.40;99.90;;;;;;4222643;28;20678;-79
2022/06/01 09:06:49;;;;;;;6.40;3.27;;;12.50;99.90;;;;;;4200219;28;20582;-80
2022/06/01 09:08:57;;;;;;;6.53;3.10;;;12.60;99.90;;;;;;4202715;28;20224;-79
2022/06/01 09:11:06;;;;;;;5.43;3.63;;;12.60;99.90;;;;;;4200622;28;20263;-79
2022/06/01 09:13:10;;;;;;;5.73;3.47;;;12.60;99.90;;;;;;4223101;28;20211;-79
2022/06/01 09:15:17;;;;;;;3.97;2.70;;;12.60;99.90;;;;;;4225838;28;20733;-79
2022/06/01 09:17:19;;;;;;;4.57;3.27;;;12.60;99.90;;;;;;4202952;28;20263;-79
2022/06/01 09:19:23;;;;;;;6.17;2.60;;;12.70;99.90;;;;;;4225043;28;20247;-78
2022/06/01 09:23:48;;;;;;;6.70;2.77;;;13.00;99.90;;;;;;4210386;28;20205;-79
2022/06/01 09:25:54;;;;;;;3.70;2.40;;;13.10;99.90;;;;;;4205040;28;20781;-79
2022/06/01 09:27:59;;;;;;;3.03;2.17;;;13.30;99.90;;;;;;4216379;28;20233;-79
2022/06/01 09:30:16;;;;;;;3.70;2.13;;;13.40;99.90;;;;;;4217796;28;20197;-79
2022/06/01 09:32:27;;;;;;;2.63;1.97;;;13.50;99.90;;;;;;4211079;28;20243;-79
2022/06/01 09:34:36;;;;;;;2.90;2.13;;;13.60;99.90;;;;;;4220305;28;20575;-79
2022/06/01 09:36:49;;;;;;;3.67;2.30;;;13.70;99.90;;;;;;4219989;28;20265;-79
2022/06/01 09:38:54;;;;;;;4.17;2.20;;;13.80;99.90;;;;;;4218868;28;20228;-79
2022/06/01 09:41:05;;;;;;;3.37;2.30;;;13.90;99.90;;;;;;4213845;28;20202;-79
2022/06/01 09:43:07;;;;;;;4.10;2.47;;;14.00;99.90;;;;;;4197220;28;20244;-79
2022/06/01 09:45:15;;;;;;;3.93;2.33;;;14.00;99.90;;;;;;4210110;28;20195;-79
2022/06/01 09:47:28;;;;;;;3.73;2.17;;;14.10;99.90;;;;;;4210144;28;20214;-79
2022/06/01 09:49:32;;;;;;;3.80;2.37;;;14.10;99.90;;;;;;4189641;28;20204;-79
2022/06/01 09:51:38;;;;;;;3.37;2.03;;;14.10;99.90;;;;;;4219653;28;20210;-79
2022/06/01 09:53:44;;;;;;;5.73;2.20;;;14.00;99.90;;;;;;4226705;28;20215;-79
2022/06/01 09:55:54;;;;;;;9.20;2.17;;;14.10;99.90;;;;;;4196042;28;20216;-79
2022/06/01 09:58:04;;;;;;;3.57;2.10;;;14.10;99.90;;;;;;4207288;28;20621;-79
2022/06/01 10:07:48;;;;;;;2.63;1.50;;;14.60;99.90;;;;;;4217258;28;20300;-79
2022/06/01 10:09:58;;;;;;;2.60;1.20;;;14.80;99.90;;;;;;4217945;28;20205;-79
2022/06/01 10:12:19;;;;;;;1.30;1.10;;;14.90;99.90;;;;;;4221298;28;20207;-80
2022/06/01 10:14:24;;;;;;;1.40;1.00;;;15.00;99.90;;;;;;4212313;28;20274;-80
2022/06/01 10:16:35;;;;;;;1.80;1.10;;;15.10;99.90;;;;;;4195219;28;20696;-80
2022/06/01 10:18:38;;;;;;;1.30;1.07;;;15.20;99.90;;;;;;4195063;28;20239;-80
2022/06/01 10:20:51;;;;;;;1.17;1.07;;;15.20;99.90;;;;;;4220996;28;20653;-80
2022/06/01 10:23:01;;;;;;;2.40;0.93;;;15.30;99.90;;;;;;4227103;28;20257;-80
2022/06/01 10:25:12;;;;;;;1.70;0.90;;;15.30;99.90;;;;;;4218557;28;20203;-80
2022/06/01 10:27:15;;;;;;;1.53;0.90;;;15.40;99.90;;;;;;4218465;28;20230;-80
2022/06/01 10:29:20;;;;;;;2.07;1.10;;;15.50;99.90;;;;;;4204102;28;20197;-80
2022/06/01 10:31:31;;;;;;;1.87;1.03;;;15.60;99.90;;;;;;4204434;28;20213;-80
2022/06/01 10:33:37;;;;;;;1.50;1.00;;;15.70;99.90;;;;;;4201873;28;20637;-80
2022/06/01 10:35:44;;;;;;;0.60;0.60;;;15.80;99.90;;;;;;4202267;28;20636;-80
2022/06/01 10:37:58;;;;;;;0.90;0.77;;;15.90;99.90;;;;;;4197912;28;20356;-80
2022/06/01 10:40:05;;;;;;;0.97;0.70;;;16.10;99.90;;;;;;4203379;28;20316;-80
2022/06/01 10:42:17;;;;;;;2.00;0.93;;;16.20;99.90;;;;;;4198704;28;20212;-80
2022/06/01 10:44:24;;;;;;;1.93;0.90;;;16.40;99.90;;;;;;4197339;28;20271;-80
2022/06/01 10:46:42;;;;;;;0.80;0.77;;;16.50;99.90;;;;;;4198859;28;20575;-80
2022/06/01 10:48:53;;;;;;;1.63;1.20;;;16.60;99.90;;;;;;4219744;28;20705;-80
2022/06/01 10:51:05;;;;;;;0.90;0.80;;;16.70;99.90;;;;;;4202471;28;20213;-80
2022/06/01 10:53:13;;;;;;;0.73;0.70;;;16.90;99.90;;;;;;4202706;28;20219;-80
2022/06/01 10:55:20;;;;;;;0.73;0.70;;;17.00;99.90;;;;;;4205665;28;20276;-79
2022/06/01 10:57:23;;;;;;;3.90;0.80;;;17.10;99.90;;;;;;4224995;28;20606;-80
2022/06/01 10:59:26;;;;;;;1.47;0.70;;;17.20;99.90;;;;;;4210752;28;20233;-80
2022/06/01 11:01:41;;;;;;;0.83;0.50;;;17.30;99.90;;;;;;4231845;28;20200;-79
2022/06/01 11:04:06;;;;;;;1.10;0.77;;;17.40;99.90;;;;;;4232300;28;20431;-79
2022/06/01 11:06:28;;;;;;;1.27;0.70;;;17.50;99.90;;;;;;4225538;28;20677;-79
2022/06/01 11:08:43;;;;;;;0.73;0.60;;;17.70;99.90;;;;;;4224510;28;20592;-80
2022/06/01 11:10:57;;;;;;;0.80;0.80;;;17.90;99.90;;;;;;4222501;28;20640;-80